Time;durP1;ratioP1;P1;durP2;ratioP2;P2;SDS_P1;SDS_P2;PMS_P1;PMS_P2;Temp;Humidity;BMP_temperature;BMP_pressure;BME280_temperature;BME280_humidity;BME280_pressure;Samples;Min_cycle;Max_cycle;Signal;HPM_P1;HPM_P2
2022/12/18 00:01:05;;;;;;;215.73;197.20;;;-10.80;23.30;;;;;;5052746;28;20179;-71
2022/12/18 00:03:32;;;;;;;224.93;206.75;;;-10.80;22.80;;;;;;5052261;28;20713;-71
2022/12/18 00:05:58;;;;;;;217.00;198.43;;;-10.80;22.40;;;;;;5035111;28;20368;-71
2022/12/18 00:08:23;;;;;;;221.50;202.73;;;-10.80;22.50;;;;;;5033518;28;20180;-71
2022/12/18 00:10:49;;;;;;;170.93;153.70;;;-10.90;22.30;;;;;;5033335;28;20183;-71
2022/12/18 00:13:14;;;;;;;213.23;195.17;;;-10.90;22.70;;;;;;5033027;28;20227;-70
2022/12/18 00:15:40;;;;;;;156.20;140.00;;;-10.90;22.30;;;;;;5033305;28;20214;-70
2022/12/18 00:18:06;;;;;;;235.47;216.10;;;-10.90;22.80;;;;;;5033326;28;20172;-71
2022/12/18 00:20:36;;;;;;;226.57;208.30;;;-11.00;22.20;;;;;;5033180;28;20202;-71
2022/12/18 00:23:02;;;;;;;281.60;260.63;;;-11.00;22.20;;;;;;5032808;28;20434;-70
2022/12/18 00:25:27;;;;;;;245.30;226.57;;;-11.00;22.20;;;;;;5033017;28;20262;-70
2022/12/18 00:27:53;;;;;;;240.17;222.27;;;-11.10;22.30;;;;;;5033110;28;20167;-70
2022/12/18 00:30:18;;;;;;;223.07;204.57;;;-11.10;22.10;;;;;;5031807;28;20664;-70
2022/12/18 00:32:44;;;;;;;236.97;218.10;;;-11.10;22.10;;;;;;5047776;28;20274;-71
2022/12/18 00:35:09;;;;;;;206.70;189.60;;;-11.20;21.60;;;;;;5032866;28;20221;-70
2022/12/18 00:37:35;;;;;;;234.00;215.30;;;-11.30;22.00;;;;;;5032881;28;20668;-71
2022/12/18 00:40:01;;;;;;;224.40;205.70;;;-11.20;22.60;;;;;;5032792;28;20664;-71
2022/12/18 00:45:11;;;;;;;190.98;173.80;;;-11.30;22.00;;;;;;5032567;28;20213;-71
2022/12/18 00:47:36;;;;;;;253.80;234.30;;;-11.20;22.10;;;;;;5032736;28;20175;-72
2022/12/18 00:50:02;;;;;;;176.57;158.63;;;-11.20;21.10;;;;;;5032621;28;20663;-72
2022/12/18 00:52:27;;;;;;;234.23;218.03;;;-11.30;21.40;;;;;;5032323;28;20598;-71
2022/12/18 00:54:53;;;;;;;225.03;206.93;;;-11.30;21.60;;;;;;5032544;28;20692;-71
2022/12/18 00:57:19;;;;;;;229.87;212.20;;;-11.30;21.60;;;;;;5032602;28;20641;-71
2022/12/18 00:59:44;;;;;;;204.80;187.67;;;-11.30;21.40;;;;;;5032515;28;20649;-71
2022/12/18 01:02:10;;;;;;;258.93;241.27;;;-11.30;21.30;;;;;;5032175;28;20410;-70
2022/12/18 01:04:35;;;;;;;248.77;231.07;;;-11.40;21.30;;;;;;5039295;28;20218;-71
2022/12/18 01:07:01;;;;;;;245.67;227.33;;;-11.40;20.70;;;;;;5052221;28;20171;-72
2022/12/18 01:09:26;;;;;;;255.83;237.13;;;-11.40;21.00;;;;;;5051231;28;20174;-72
2022/12/18 01:11:52;;;;;;;228.93;211.77;;;-11.40;21.50;;;;;;5051909;28;20170;-71
2022/12/18 01:14:17;;;;;;;212.53;195.30;;;-11.40;21.00;;;;;;5050834;28;20194;-71
2022/12/18 01:16:43;;;;;;;183.77;167.17;;;-11.50;20.80;;;;;;5052104;28;20190;-71
2022/12/18 01:19:09;;;;;;;237.23;219.37;;;-11.50;20.80;;;;;;5052032;28;20183;-71
2022/12/18 01:21:34;;;;;;;276.30;257.53;;;-11.50;21.00;;;;;;5051754;28;20668;-71
2022/12/18 01:24:00;;;;;;;268.70;250.50;;;-11.60;20.90;;;;;;5051782;28;20210;-71
2022/12/18 01:26:29;;;;;;;265.17;245.20;;;-11.60;21.10;;;;;;5052014;28;20185;-71
2022/12/18 01:28:56;;;;;;;228.82;211.75;;;-11.60;20.90;;;;;;5051995;28;20264;-71
2022/12/18 01:31:33;;;;;;;212.07;194.60;;;-11.70;20.90;;;;;;5051988;28;20597;-71
2022/12/18 01:34:01;;;;;;;261.80;244.00;;;-11.70;20.20;;;;;;5051744;28;20225;-71
2022/12/18 01:36:32;;;;;;;233.85;216.52;;;-11.80;20.60;;;;;;5050928;28;20374;-72
2022/12/18 01:39:00;;;;;;;248.23;230.40;;;-11.70;20.70;;;;;;5051906;28;20170;-70
2022/12/18 01:42:01;;;;;;;235.98;218.55;;;-11.70;20.20;;;;;;5050335;28;20175;-71
2022/12/18 01:45:05;;;;;;;240.15;222.48;;;-11.70;20.40;;;;;;5051553;28;20213;-70
2022/12/18 01:47:37;;;;;;;204.98;188.50;;;-11.80;20.40;;;;;;5046664;28;20190;-70
2022/12/18 01:50:15;;;;;;;270.85;252.95;;;-11.80;20.20;;;;;;5051889;28;20171;-71
2022/12/18 01:52:43;;;;;;;216.23;199.10;;;-11.70;20.40;;;;;;5051395;28;20659;-71
2022/12/18 01:55:14;;;;;;;156.57;141.93;;;-11.60;20.50;;;;;;5051762;28;20186;-71
2022/12/18 01:57:41;;;;;;;234.82;217.30;;;-11.70;20.60;;;;;;5055928;28;20171;-71
2022/12/18 02:00:21;;;;;;;209.43;193.35;;;-11.60;20.80;;;;;;5055897;28;20245;-72
2022/12/18 02:02:47;;;;;;;239.57;222.32;;;-11.60;21.20;;;;;;5055498;28;20191;-71
2022/12/18 02:05:17;;;;;;;205.45;189.75;;;-11.60;22.00;;;;;;5054192;28;20235;-71
2022/12/18 02:07:55;;;;;;;240.68;222.63;;;-11.40;21.50;;;;;;5055700;28;20201;-71
2022/12/18 02:10:37;;;;;;;244.90;227.57;;;-11.40;21.70;;;;;;5055677;28;20217;-71
2022/12/18 02:13:18;;;;;;;234.25;217.38;;;-11.30;21.40;;;;;;5055250;28;20236;-72
2022/12/18 02:15:49;;;;;;;253.48;235.60;;;-11.30;20.90;;;;;;5055474;28;20197;-70
2022/12/18 02:18:22;;;;;;;251.10;232.10;;;-11.20;21.20;;;;;;5054194;28;20174;-70
2022/12/18 02:21:04;;;;;;;309.13;287.45;;;-11.30;21.30;;;;;;5054181;28;20178;-70
2022/12/18 02:24:15;;;;;;;239.20;221.40;;;-11.30;21.10;;;;;;5053661;28;20272;-70
2022/12/18 02:26:48;;;;;;;173.88;158.90;;;-11.20;22.10;;;;;;5046677;28;20558;-69
2022/12/18 02:29:27;;;;;;;195.02;178.80;;;-11.20;21.60;;;;;;5055295;28;20538;-70
2022/12/18 02:31:55;;;;;;;218.23;201.05;;;-11.20;22.10;;;;;;5054897;28;20163;-70
2022/12/18 02:34:25;;;;;;;203.23;186.55;;;-11.10;22.10;;;;;;5054914;28;20352;-70
2022/12/18 02:36:52;;;;;;;228.82;210.80;;;-11.10;22.10;;;;;;5053833;28;20186;-70
2022/12/18 02:39:19;;;;;;;250.10;231.02;;;-11.10;21.90;;;;;;5053793;28;20254;-70
2022/12/18 02:41:45;;;;;;;223.98;206.70;;;-11.10;21.80;;;;;;5054905;28;20181;-70
2022/12/18 02:44:13;;;;;;;226.77;209.77;;;-11.00;22.00;;;;;;5054882;28;20202;-70
2022/12/18 02:46:46;;;;;;;311.83;288.63;;;-11.00;21.40;;;;;;5054223;28;20443;-70
2022/12/18 02:49:36;;;;;;;239.05;220.02;;;-11.10;20.80;;;;;;5054832;28;20178;-70
2022/12/18 02:52:18;;;;;;;245.60;227.93;;;-11.20;20.80;;;;;;5054581;28;20662;-70
2022/12/18 02:55:02;;;;;;;199.60;183.60;;;-11.30;20.70;;;;;;5053711;28;20213;-70
2022/12/18 02:57:48;;;;;;;286.50;267.13;;;-11.30;20.80;;;;;;5054722;28;20174;-70
2022/12/18 03:00:21;;;;;;;330.08;307.08;;;-11.30;21.30;;;;;;5054759;28;20709;-70
2022/12/18 03:03:10;;;;;;;230.07;213.95;;;-11.30;21.00;;;;;;5054393;28;20692;-71
2022/12/18 03:05:44;;;;;;;234.13;216.85;;;-11.30;21.30;;;;;;5054436;28;20190;-70
2022/12/18 03:08:21;;;;;;;215.27;198.27;;;-11.40;21.30;;;;;;5054467;28;20705;-70
2022/12/18 03:10:58;;;;;;;214.73;197.77;;;-11.30;20.60;;;;;;5054560;28;20174;-70
2022/12/18 03:13:33;;;;;;;262.73;245.27;;;-11.30;21.30;;;;;;5054303;28;20202;-70
2022/12/18 03:16:00;;;;;;;221.93;205.38;;;-11.30;21.60;;;;;;5053192;28;20640;-70
2022/12/18 03:18:32;;;;;;;187.70;171.85;;;-11.20;20.80;;;;;;5054560;28;20188;-69
2022/12/18 03:21:02;;;;;;;235.50;219.00;;;-11.20;20.50;;;;;;5053107;28;20183;-70
2022/12/18 03:23:33;;;;;;;180.13;164.90;;;-11.30;20.90;;;;;;5053847;28;20259;-70
2022/12/18 03:26:04;;;;;;;224.45;208.10;;;-11.30;20.50;;;;;;5054375;28;20232;-70
2022/12/18 03:28:31;;;;;;;255.77;237.80;;;-11.20;21.20;;;;;;5054184;28;20175;-70
2022/12/18 03:31:00;;;;;;;267.23;249.18;;;-11.30;20.40;;;;;;5054100;28;20193;-70
2022/12/18 03:33:55;;;;;;;173.65;158.93;;;-11.30;20.60;;;;;;5052440;28;20221;-71
2022/12/18 03:36:22;;;;;;;193.23;176.90;;;-11.20;21.30;;;;;;5052054;28;20187;-70
2022/12/18 03:38:48;;;;;;;217.27;200.30;;;-11.20;20.80;;;;;;5052670;28;20174;-70
2022/12/18 03:41:28;;;;;;;205.57;189.37;;;-11.20;20.40;;;;;;5054363;28;20272;-70
2022/12/18 03:44:02;;;;;;;219.00;202.95;;;-11.20;21.30;;;;;;5053744;28;20210;-70
2022/12/18 03:46:30;;;;;;;208.52;191.85;;;-11.20;20.80;;;;;;5053867;28;20183;-70
2022/12/18 03:49:06;;;;;;;209.48;193.55;;;-11.20;21.20;;;;;;5052545;28;20530;-70
2022/12/18 03:51:45;;;;;;;213.43;196.48;;;-11.20;21.50;;;;;;5052330;28;20196;-70
2022/12/18 03:54:12;;;;;;;229.50;212.23;;;-11.30;21.50;;;;;;5053683;28;20205;-70
2022/12/18 03:56:50;;;;;;;237.15;219.95;;;-11.20;22.30;;;;;;5053644;28;20185;-70
2022/12/18 03:59:18;;;;;;;191.02;174.10;;;-11.20;21.90;;;;;;5053574;28;20662;-71
2022/12/18 04:01:49;;;;;;;206.82;190.27;;;-11.30;21.30;;;;;;5053477;28;20205;-70
2022/12/18 04:04:16;;;;;;;227.18;209.48;;;-11.30;22.00;;;;;;5053253;28;20226;-70
2022/12/18 04:06:45;;;;;;;201.60;185.32;;;-11.30;22.00;;;;;;5053477;28;20220;-70
2022/12/18 04:09:10;;;;;;;237.05;219.30;;;-11.30;21.80;;;;;;5053439;28;20471;-71
2022/12/18 04:11:36;;;;;;;164.93;149.97;;;-11.30;22.00;;;;;;5053218;28;20538;-71
2022/12/18 04:14:01;;;;;;;175.37;159.40;;;-11.30;22.00;;;;;;5053318;28;20200;-70
2022/12/18 04:16:27;;;;;;;239.37;221.20;;;-11.30;22.20;;;;;;5053249;28;20676;-71
2022/12/18 04:18:53;;;;;;;270.73;251.13;;;-11.20;22.50;;;;;;5052732;28;20179;-71
2022/12/18 04:21:20;;;;;;;236.02;219.02;;;-11.20;22.50;;;;;;5053120;28;20414;-71
2022/12/18 04:23:45;;;;;;;222.30;204.82;;;-11.20;22.60;;;;;;5052751;28;20285;-71
2022/12/18 04:26:11;;;;;;;210.33;192.47;;;-11.10;22.90;;;;;;5053068;28;20250;-71
2022/12/18 04:28:36;;;;;;;223.33;205.73;;;-11.20;22.00;;;;;;5053079;28;20175;-71
2022/12/18 04:31:02;;;;;;;188.77;173.70;;;-11.30;22.50;;;;;;5051965;28;20174;-70
2022/12/18 04:33:28;;;;;;;161.37;146.77;;;-11.30;23.20;;;;;;5051164;28;20213;-70
2022/12/18 04:35:53;;;;;;;200.70;184.70;;;-11.20;23.20;;;;;;5052913;28;20170;-70
2022/12/18 04:38:19;;;;;;;221.90;204.40;;;-11.10;23.30;;;;;;5051515;28;20678;-71
2022/12/18 04:40:44;;;;;;;292.97;274.77;;;-11.10;22.10;;;;;;5052906;28;20534;-71
2022/12/18 04:43:10;;;;;;;245.77;228.53;;;-11.10;22.80;;;;;;5052232;28;20737;-71
2022/12/18 04:45:35;;;;;;;195.03;178.97;;;-11.20;22.40;;;;;;5052693;28;20644;-70
2022/12/18 04:48:02;;;;;;;211.53;195.13;;;-11.20;22.10;;;;;;5051322;28;20356;-71
2022/12/18 04:50:28;;;;;;;224.13;207.15;;;-11.20;22.50;;;;;;5052666;28;20573;-71
2022/12/18 04:52:54;;;;;;;211.67;195.53;;;-11.10;23.00;;;;;;5052344;28;20232;-71
2022/12/18 04:55:20;;;;;;;282.80;264.75;;;-11.00;22.90;;;;;;5052510;28;20447;-71
2022/12/18 04:57:46;;;;;;;154.05;136.52;;;-11.10;22.60;;;;;;5051209;28;20247;-70
2022/12/18 05:00:12;;;;;;;211.63;194.93;;;-11.00;22.20;;;;;;5052377;28;20170;-71
2022/12/18 05:02:38;;;;;;;191.68;176.02;;;-10.90;22.30;;;;;;5052141;28;20202;-71
2022/12/18 05:05:04;;;;;;;261.60;242.93;;;-10.90;21.70;;;;;;5052059;28;20691;-71
2022/12/18 05:07:30;;;;;;;198.50;181.90;;;-11.00;21.50;;;;;;5052299;28;20171;-71
2022/12/18 05:09:55;;;;;;;216.40;199.50;;;-10.90;22.30;;;;;;5052368;28;20174;-70
2022/12/18 05:12:21;;;;;;;183.50;167.27;;;-10.90;22.30;;;;;;5051990;28;20202;-71
2022/12/18 05:14:46;;;;;;;213.40;196.93;;;-10.90;22.30;;;;;;5051058;28;20194;-71
2022/12/18 05:17:12;;;;;;;253.63;234.10;;;-10.90;21.60;;;;;;5052195;28;20190;-71
2022/12/18 05:19:37;;;;;;;240.47;223.53;;;-11.10;21.10;;;;;;5034564;28;20175;-71
2022/12/18 05:22:03;;;;;;;192.27;175.70;;;-11.10;22.10;;;;;;5031922;28;20321;-71
2022/12/18 05:24:28;;;;;;;255.50;234.90;;;-11.20;22.10;;;;;;5032001;28;20223;-71
2022/12/18 05:26:54;;;;;;;240.13;222.63;;;-11.30;22.00;;;;;;5032179;28;20178;-71
2022/12/18 05:29:19;;;;;;;191.97;175.50;;;-11.30;22.40;;;;;;5032010;28;20542;-71
2022/12/18 05:31:45;;;;;;;266.40;247.47;;;-11.30;22.80;;;;;;5029942;28;20652;-71
2022/12/18 05:34:11;;;;;;;323.70;301.03;;;-11.20;22.10;;;;;;5073549;22;20229;-69
2022/12/18 05:36:36;;;;;;;235.57;218.03;;;-11.30;22.00;;;;;;5073713;28;20174;-69
2022/12/18 05:39:02;;;;;;;248.30;231.47;;;-11.30;22.10;;;;;;5089144;28;20170;-69
2022/12/18 05:41:28;;;;;;;191.80;174.90;;;-11.30;22.20;;;;;;5073541;28;20170;-69
2022/12/18 05:43:54;;;;;;;194.70;179.10;;;-11.40;21.70;;;;;;5072074;28;20205;-69
2022/12/18 05:46:19;;;;;;;203.87;187.97;;;-11.40;22.10;;;;;;5072952;28;20184;-69
2022/12/18 05:48:45;;;;;;;229.23;213.33;;;-11.40;21.90;;;;;;5088319;28;20223;-69
2022/12/18 05:51:14;;;;;;;403.57;375.97;;;-11.50;22.20;;;;;;5072539;28;20169;-69
2022/12/18 05:53:40;;;;;;;200.00;184.68;;;-11.50;22.10;;;;;;5071898;28;20247;-69
2022/12/18 05:56:10;;;;;;;221.25;204.32;;;-11.50;21.90;;;;;;5072094;28;20594;-69
2022/12/18 05:58:36;;;;;;;209.00;192.23;;;-11.60;21.50;;;;;;5072108;28;20174;-69
2022/12/18 06:01:17;;;;;;;262.50;245.23;;;-11.60;21.60;;;;;;5072154;28;20235;-69
2022/12/18 06:03:42;;;;;;;239.25;221.68;;;-11.60;22.40;;;;;;5087070;28;20208;-69
2022/12/18 06:06:18;;;;;;;233.27;216.47;;;-11.70;21.80;;;;;;5071653;28;20654;-69
2022/12/18 06:08:44;;;;;;;238.13;221.50;;;-11.70;22.40;;;;;;5087269;28;20174;-69
2022/12/18 06:11:10;;;;;;;209.32;193.55;;;-11.50;22.50;;;;;;5071559;28;20222;-69
2022/12/18 06:13:37;;;;;;;227.97;211.30;;;-11.60;22.10;;;;;;5087430;28;20288;-69
2022/12/18 06:16:07;;;;;;;246.98;228.25;;;-11.70;21.80;;;;;;5088894;28;20178;-69
2022/12/18 06:18:33;;;;;;;235.02;217.57;;;-11.80;21.40;;;;;;5072557;28;20307;-69
2022/12/18 06:20:59;;;;;;;285.00;266.57;;;-11.60;22.30;;;;;;5072491;28;20213;-69
2022/12/18 06:23:25;;;;;;;229.18;212.48;;;-11.60;22.40;;;;;;5086989;28;20237;-69
2022/12/18 06:25:51;;;;;;;233.57;216.83;;;-11.60;22.00;;;;;;5071577;28;20224;-69
2022/12/18 06:28:17;;;;;;;300.73;281.47;;;-11.70;21.80;;;;;;5087315;28;20457;-69
2022/12/18 06:30:47;;;;;;;209.70;193.63;;;-11.80;22.00;;;;;;5071617;28;20408;-68
2022/12/18 06:33:13;;;;;;;268.33;249.35;;;-11.80;22.40;;;;;;5071613;28;20415;-68
2022/12/18 06:35:39;;;;;;;190.30;173.80;;;-11.70;22.50;;;;;;5071586;28;20227;-68
2022/12/18 06:38:04;;;;;;;265.43;247.27;;;-11.60;23.10;;;;;;5071714;28;20170;-69
2022/12/18 06:40:30;;;;;;;274.30;254.67;;;-11.60;21.80;;;;;;5072166;28;20178;-68
2022/12/18 06:42:55;;;;;;;238.30;221.47;;;-11.70;21.80;;;;;;5074085;28;20210;-70
2022/12/18 06:45:21;;;;;;;226.63;210.60;;;-11.70;21.80;;;;;;5090674;28;20213;-68
2022/12/18 06:47:46;;;;;;;217.43;200.87;;;-11.60;21.60;;;;;;5075125;28;20178;-68
2022/12/18 06:50:12;;;;;;;195.40;180.13;;;-11.60;21.30;;;;;;5075078;28;20216;-69
2022/12/18 06:52:40;;;;;;;205.23;189.38;;;-11.60;21.20;;;;;;5074684;28;20261;-69
2022/12/18 06:55:07;;;;;;;265.95;248.85;;;-11.60;20.50;;;;;;5075175;28;20190;-70
2022/12/18 06:57:33;;;;;;;240.98;224.18;;;-11.60;21.30;;;;;;5090926;28;20654;-69
2022/12/18 06:59:59;;;;;;;217.23;201.53;;;-11.60;20.80;;;;;;5075341;28;20224;-69
2022/12/18 07:02:25;;;;;;;280.10;260.63;;;-11.60;21.60;;;;;;5071393;28;20552;-69
2022/12/18 07:04:50;;;;;;;246.37;229.30;;;-11.60;20.90;;;;;;5058822;28;20222;-69
2022/12/18 07:07:16;;;;;;;265.60;248.90;;;-11.60;21.10;;;;;;5056418;28;20659;-69
2022/12/18 07:09:41;;;;;;;259.73;242.50;;;-11.60;21.80;;;;;;5054642;28;20171;-68
2022/12/18 07:12:07;;;;;;;238.53;221.50;;;-11.60;21.20;;;;;;5069650;28;20641;-68
2022/12/18 07:14:33;;;;;;;230.43;213.53;;;-11.60;21.10;;;;;;5053248;28;20257;-68
2022/12/18 07:16:59;;;;;;;204.43;188.37;;;-11.60;20.90;;;;;;5054766;28;20413;-68
2022/12/18 07:19:24;;;;;;;223.43;207.50;;;-11.60;20.50;;;;;;5054566;28;20262;-68
2022/12/18 07:21:50;;;;;;;224.37;208.30;;;-11.60;20.10;;;;;;5054318;28;20175;-68
2022/12/18 07:24:16;;;;;;;272.65;255.60;;;-11.60;20.60;;;;;;5056303;28;20222;-68
2022/12/18 07:26:42;;;;;;;231.77;215.77;;;-11.50;21.50;;;;;;5074609;28;20586;-68
2022/12/18 07:29:07;;;;;;;346.17;323.83;;;-11.50;21.00;;;;;;5074501;28;20719;-68
2022/12/18 07:31:33;;;;;;;209.47;192.50;;;-11.50;21.10;;;;;;5074381;28;20201;-69
2022/12/18 07:33:59;;;;;;;252.97;235.87;;;-11.40;20.70;;;;;;5074286;28;20456;-69
2022/12/18 07:36:25;;;;;;;278.80;260.23;;;-11.40;20.90;;;;;;5074354;28;20416;-68
2022/12/18 07:38:52;;;;;;;288.43;270.83;;;-11.40;21.10;;;;;;5074287;28;20183;-69
2022/12/18 07:41:18;;;;;;;250.82;233.70;;;-11.40;20.70;;;;;;5089916;28;20538;-69
2022/12/18 07:43:44;;;;;;;248.38;230.52;;;-11.40;20.50;;;;;;5063783;28;20247;-69
2022/12/18 07:46:10;;;;;;;284.97;267.33;;;-11.40;20.60;;;;;;5054519;28;20269;-69
2022/12/18 07:48:36;;;;;;;275.77;258.00;;;-11.40;21.20;;;;;;5055244;28;20766;-68
2022/12/18 07:51:05;;;;;;;280.80;262.73;;;-11.30;21.20;;;;;;5054685;28;20179;-69
2022/12/18 07:53:32;;;;;;;219.93;203.70;;;-11.30;20.50;;;;;;5053177;28;20747;-67
2022/12/18 07:55:59;;;;;;;262.73;245.13;;;-11.30;21.50;;;;;;5054106;28;20277;-68
2022/12/18 07:58:25;;;;;;;247.77;229.40;;;-11.30;21.00;;;;;;5052573;28;20790;-68
2022/12/18 08:00:51;;;;;;;211.02;194.27;;;-11.30;21.00;;;;;;5054096;28;20631;-69
2022/12/18 08:03:17;;;;;;;264.25;246.90;;;-11.20;21.20;;;;;;5054220;28;20224;-69
2022/12/18 08:05:43;;;;;;;323.90;300.30;;;-11.10;21.70;;;;;;5054786;28;20632;-69
2022/12/18 08:08:09;;;;;;;214.80;198.50;;;-11.10;21.10;;;;;;5055033;28;20167;-69
2022/12/18 08:10:34;;;;;;;241.57;224.37;;;-11.00;21.90;;;;;;5055232;28;20587;-68
2022/12/18 08:13:00;;;;;;;243.87;225.60;;;-10.90;21.70;;;;;;5055062;28;20236;-68
2022/12/18 08:15:25;;;;;;;243.13;225.17;;;-10.90;21.10;;;;;;5055345;28;20203;-69
2022/12/18 08:17:51;;;;;;;238.07;221.00;;;-10.90;23.80;;;;;;5053977;28;20216;-68
2022/12/18 08:20:18;;;;;;;253.93;235.77;;;-10.90;23.00;;;;;;5052232;28;20193;-68
2022/12/18 08:22:44;;;;;;;262.55;243.55;;;-10.80;22.70;;;;;;5053650;28;20181;-68
2022/12/18 08:25:10;;;;;;;240.10;223.43;;;-10.80;22.30;;;;;;5053536;28;20218;-68
2022/12/18 08:27:35;;;;;;;209.13;193.20;;;-10.80;22.20;;;;;;5058715;28;20178;-68
2022/12/18 08:30:01;;;;;;;252.00;233.97;;;-10.80;22.60;;;;;;5073609;28;20502;-68
2022/12/18 08:32:27;;;;;;;262.33;242.73;;;-10.70;22.50;;;;;;5089166;28;20455;-68
2022/12/18 08:34:53;;;;;;;218.30;201.00;;;-10.70;21.90;;;;;;5067997;28;20723;-69
2022/12/18 08:37:18;;;;;;;182.27;166.13;;;-10.60;22.20;;;;;;5067466;28;20838;-69
2022/12/18 08:39:44;;;;;;;212.60;196.83;;;-10.50;21.90;;;;;;5068730;28;20666;-69
2022/12/18 08:44:54;;;;;;;241.50;224.18;;;-10.50;21.90;;;;;;5069444;28;20217;-68
2022/12/18 08:47:19;;;;;;;211.87;195.20;;;-10.50;21.10;;;;;;5084583;28;20724;-67
2022/12/18 08:49:45;;;;;;;242.53;225.83;;;-10.50;21.30;;;;;;5084511;28;20182;-69
2022/12/18 08:52:13;;;;;;;238.30;221.67;;;-10.50;21.50;;;;;;5069212;28;20177;-69
2022/12/18 08:54:39;;;;;;;224.38;206.82;;;-10.40;21.20;;;;;;5060040;28;20198;-69
2022/12/18 08:57:04;;;;;;;241.53;223.27;;;-10.40;21.20;;;;;;5049075;28;20186;-68
2022/12/18 08:59:30;;;;;;;202.53;186.00;;;-10.30;21.50;;;;;;5050159;28;20206;-68
2022/12/18 09:01:55;;;;;;;203.63;187.33;;;-10.20;21.80;;;;;;5049041;28;20190;-68
2022/12/18 09:04:22;;;;;;;242.93;225.87;;;-10.20;21.20;;;;;;5047599;28;20246;-67
2022/12/18 09:06:47;;;;;;;218.52;202.10;;;-10.10;22.00;;;;;;5049960;28;20189;-68
2022/12/18 09:09:13;;;;;;;168.13;152.83;;;-10.00;22.60;;;;;;5057836;28;20181;-68
2022/12/18 09:11:39;;;;;;;162.80;147.40;;;-9.80;22.60;;;;;;5068703;28;20231;-69
2022/12/18 09:14:04;;;;;;;183.83;166.83;;;-9.80;22.60;;;;;;5069634;28;20201;-68
2022/12/18 09:16:31;;;;;;;189.10;172.33;;;-9.70;22.40;;;;;;5072354;28;20189;-68
2022/12/18 09:18:59;;;;;;;173.48;158.15;;;-9.60;22.90;;;;;;5076994;28;20194;-70
2022/12/18 09:21:26;;;;;;;185.38;169.23;;;-9.50;22.60;;;;;;5072484;28;20192;-69
2022/12/18 09:23:53;;;;;;;178.75;163.10;;;-9.40;23.00;;;;;;5086034;28;20573;-70
2022/12/18 09:26:20;;;;;;;223.70;205.68;;;-9.40;22.90;;;;;;5069797;28;20182;-70
2022/12/18 09:28:45;;;;;;;191.57;173.27;;;-9.30;22.50;;;;;;5069673;28;20180;-69
2022/12/18 09:31:12;;;;;;;153.67;138.40;;;-9.20;22.30;;;;;;5068107;28;20280;-70
2022/12/18 09:33:38;;;;;;;168.25;151.65;;;-9.20;23.10;;;;;;5068547;28;20224;-68
2022/12/18 09:36:06;;;;;;;223.87;205.57;;;-9.10;23.40;;;;;;5079844;28;20281;-68
2022/12/18 09:38:32;;;;;;;151.43;135.85;;;-9.00;23.70;;;;;;5059453;28;20428;-68
2022/12/18 09:41:04;;;;;;;133.02;118.75;;;-8.90;23.40;;;;;;5055603;28;20189;-69
2022/12/18 09:43:52;;;;;;;122.78;100.45;;;-8.70;23.80;;;;;;5068852;28;20619;-70
2022/12/18 09:46:30;;;;;;;128.95;103.53;;;-8.50;23.80;;;;;;5069451;28;20662;-68
2022/12/18 09:49:01;;;;;;;172.45;156.23;;;-8.50;23.70;;;;;;5069336;28;20182;-68
2022/12/18 09:51:36;;;;;;;197.48;179.68;;;-8.40;23.80;;;;;;5068378;28;20212;-68
2022/12/18 09:54:06;;;;;;;150.30;135.32;;;-8.20;24.20;;;;;;5068208;28;20205;-68
2022/12/18 09:56:37;;;;;;;212.10;194.18;;;-8.10;24.70;;;;;;5069110;28;20186;-69
2022/12/18 09:59:04;;;;;;;170.60;154.63;;;-7.90;24.70;;;;;;5050942;28;20180;-69
2022/12/18 10:01:31;;;;;;;170.35;152.80;;;-7.80;24.80;;;;;;5068247;28;20179;-68
2022/12/18 10:03:58;;;;;;;125.55;106.13;;;-7.70;25.10;;;;;;5084333;28;20214;-68
2022/12/18 10:06:38;;;;;;;135.77;109.78;;;-7.50;26.00;;;;;;5065746;28;20225;-68
2022/12/18 10:09:21;;;;;;;162.45;145.50;;;-7.40;25.40;;;;;;5047706;28;20198;-68
2022/12/18 10:11:58;;;;;;;141.75;125.28;;;-7.30;24.50;;;;;;5046596;28;20243;-68
2022/12/18 10:14:48;;;;;;;174.32;155.55;;;-7.10;24.70;;;;;;5047296;28;20587;-68
2022/12/18 10:17:20;;;;;;;125.25;100.38;;;-7.00;24.90;;;;;;5061066;28;20197;-68
2022/12/18 10:19:51;;;;;;;164.00;148.45;;;-6.90;25.20;;;;;;5059732;28;20199;-69
2022/12/18 10:22:42;;;;;;;139.45;125.07;;;-6.80;25.60;;;;;;5058034;28;20189;-68
2022/12/18 10:25:33;;;;;;;127.15;94.78;;;-6.60;25.80;;;;;;5051767;28;20210;-69
2022/12/18 10:28:07;;;;;;;126.75;71.95;;;-6.40;25.80;;;;;;5052789;28;20269;-69
2022/12/18 10:30:33;;;;;;;120.05;76.28;;;-6.30;26.00;;;;;;5059955;28;20177;-69
2022/12/18 10:33:02;;;;;;;121.50;79.40;;;-6.00;27.20;;;;;;5059560;28;20200;-69
2022/12/18 10:35:28;;;;;;;147.00;117.90;;;-5.70;26.70;;;;;;5070845;28;20221;-68
2022/12/18 10:38:12;;;;;;;115.70;64.63;;;-5.40;28.20;;;;;;5076548;28;20173;-69
2022/12/18 10:40:58;;;;;;;121.22;76.95;;;-4.90;29.10;;;;;;5076689;28;20166;-69
2022/12/18 10:43:26;;;;;;;109.32;62.50;;;-4.60;29.10;;;;;;5073939;28;20217;-69
2022/12/18 10:46:05;;;;;;;125.93;61.45;;;-4.30;28.50;;;;;;5075584;28;20205;-69
2022/12/18 10:48:33;;;;;;;113.40;58.85;;;-3.90;29.00;;;;;;5058967;28;20190;-69
2022/12/18 10:50:59;;;;;;;112.28;76.65;;;-3.60;27.70;;;;;;5055821;28;20174;-68
2022/12/18 10:53:29;;;;;;;115.53;59.72;;;-3.40;26.30;;;;;;5055726;28;20231;-69
2022/12/18 10:55:58;;;;;;;119.90;71.10;;;-3.30;26.60;;;;;;5056242;28;20206;-69
2022/12/18 10:58:25;;;;;;;114.60;70.45;;;-3.40;22.30;;;;;;5055971;28;20686;-69
2022/12/18 11:01:16;;;;;;;119.82;82.38;;;-3.70;21.60;;;;;;5056742;28;20183;-69
2022/12/18 11:03:44;;;;;;;102.13;51.55;;;-4.00;21.90;;;;;;5075084;28;20265;-69
2022/12/18 11:06:16;;;;;;;106.60;52.95;;;-4.10;22.40;;;;;;5073899;28;20177;-69
2022/12/18 11:08:43;;;;;;;116.30;75.63;;;-4.10;22.60;;;;;;5054294;28;20171;-69
2022/12/18 11:11:20;;;;;;;109.70;59.13;;;-4.20;22.50;;;;;;5054258;28;20183;-69
2022/12/18 11:14:01;;;;;;;203.20;183.50;;;-4.20;22.50;;;;;;5055131;28;20251;-68
2022/12/18 11:16:30;;;;;;;154.88;133.50;;;-4.30;22.40;;;;;;5055036;28;20163;-69
2022/12/18 11:19:14;;;;;;;121.00;75.88;;;-4.30;23.60;;;;;;5056470;28;20170;-70
2022/12/18 11:21:42;;;;;;;113.72;61.03;;;-4.30;24.00;;;;;;5074547;28;20197;-69
2022/12/18 11:24:33;;;;;;;108.60;65.60;;;-4.20;24.40;;;;;;5074692;28;20258;-69
2022/12/18 11:27:02;;;;;;;117.20;52.08;;;-4.20;24.60;;;;;;5075069;28;20249;-69
2022/12/18 11:29:38;;;;;;;118.50;70.57;;;-4.00;24.70;;;;;;5074014;28;20264;-70
2022/12/18 11:32:22;;;;;;;107.68;52.65;;;-3.70;25.00;;;;;;5074649;28;20173;-71
2022/12/18 11:34:55;;;;;;;103.50;54.25;;;-3.60;25.10;;;;;;5074582;28;20213;-71
2022/12/18 11:37:20;;;;;;;189.40;166.75;;;-3.40;24.60;;;;;;5074115;28;20658;-71
2022/12/18 11:39:56;;;;;;;127.38;83.30;;;-3.40;22.40;;;;;;5074033;28;20690;-70
2022/12/18 11:42:41;;;;;;;108.93;52.22;;;-3.50;23.00;;;;;;5073729;28;20166;-69
2022/12/18 11:45:12;;;;;;;149.55;134.13;;;-3.40;23.00;;;;;;5060804;28;20208;-70
2022/12/18 11:48:02;;;;;;;120.18;76.70;;;-3.50;23.00;;;;;;5056055;28;20175;-70
2022/12/18 11:50:36;;;;;;;108.53;54.28;;;-3.60;23.40;;;;;;5074360;28;20258;-72
2022/12/18 11:53:02;;;;;;;109.47;58.92;;;-3.40;24.10;;;;;;5073569;28;20175;-71
2022/12/18 11:55:41;;;;;;;113.75;57.20;;;-3.10;23.80;;;;;;5073718;28;20603;-70
2022/12/18 11:58:31;;;;;;;117.03;69.68;;;-2.90;23.30;;;;;;5073707;28;20271;-71
2022/12/18 12:00:59;;;;;;;138.82;98.45;;;-2.70;22.40;;;;;;5069041;28;20187;-70
2022/12/18 12:03:46;;;;;;;117.43;63.53;;;-2.60;21.60;;;;;;5068419;28;20205;-70
2022/12/18 12:06:39;;;;;;;116.75;70.03;;;-2.60;21.00;;;;;;5089180;28;20629;-70
2022/12/18 12:09:25;;;;;;;107.75;51.72;;;-2.70;21.10;;;;;;5073710;28;20642;-69
2022/12/18 12:11:59;;;;;;;106.80;56.47;;;-2.60;20.60;;;;;;5073105;28;20636;-71
2022/12/18 12:14:45;;;;;;;112.88;59.28;;;-2.40;20.40;;;;;;5073218;28;20573;-71
2022/12/18 12:17:42;;;;;;;111.53;53.10;;;-2.30;19.90;;;;;;5073294;28;20190;-70
2022/12/18 12:20:39;;;;;;;105.07;55.65;;;-2.20;19.40;;;;;;5073262;28;20203;-69
2022/12/18 12:23:28;;;;;;;116.60;79.15;;;-2.20;19.20;;;;;;5071662;28;20197;-71